createdAt,value
2022-11-02T00:01:47.219Z,26.47
2022-11-02T00:04:15.474Z,18.73
2022-11-02T00:06:44.506Z,23.23
2022-11-02T00:09:11.950Z,26.58
2022-11-02T00:11:39.385Z,19.35
2022-11-02T00:14:06.823Z,21.15
2022-11-02T00:16:36.982Z,14.55
2022-11-02T00:19:04.579Z,18.45
2022-11-02T00:21:32.138Z,12.15
2022-11-02T00:24:01.065Z,15.77
2022-11-02T00:26:29.355Z,15.18
2022-11-02T00:31:25.631Z,14.63
2022-11-02T00:33:53.026Z,16.80
2022-11-02T00:36:21.081Z,14.13
2022-11-02T00:38:48.738Z,12.05
2022-11-02T00:41:18.306Z,16.08
2022-11-02T00:43:45.985Z,16.73
2022-11-02T00:46:14.489Z,10.30
2022-11-02T00:48:42.675Z,13.98
2022-11-02T00:51:11.131Z,15.05
2022-11-02T00:53:42.637Z,12.45
2022-11-02T00:56:10.425Z,11.35
2022-11-02T00:58:37.955Z,10.10
2022-11-02T01:01:07.647Z,11.68
2022-11-02T01:03:36.701Z,13.30
2022-11-02T01:06:15.506Z,13.65
2022-11-02T01:08:42.945Z,10.07
2022-11-02T01:11:16.039Z,11.65
2022-11-02T01:13:45.366Z,7.05
2022-11-02T01:16:14.345Z,11.07
2022-11-02T01:18:41.960Z,10.77
2022-11-02T01:21:09.906Z,13.43
2022-11-02T01:23:38.374Z,10.23
2022-11-02T01:26:07.831Z,14.45
2022-11-02T01:28:36.530Z,8.45
2022-11-02T01:31:04.263Z,9.40
2022-11-02T01:33:32.081Z,8.60
2022-11-02T01:36:02.277Z,9.25
2022-11-02T01:38:31.260Z,9.68
2022-11-02T01:41:00.214Z,11.27
2022-11-02T01:43:36.921Z,12.10
2022-11-02T01:46:11.691Z,14.88
2022-11-02T01:48:50.606Z,11.75
2022-11-02T01:51:42.215Z,9.48
2022-11-02T01:54:23.707Z,16.52
2022-11-02T01:56:56.012Z,17.65
2022-11-02T01:59:29.050Z,12.25
2022-11-02T02:01:56.662Z,14.60
2022-11-02T02:04:25.858Z,14.10
2022-11-02T02:06:58.789Z,10.80
2022-11-02T02:09:28.334Z,10.93
2022-11-02T02:11:56.370Z,12.60
2022-11-02T02:14:24.790Z,11.73
2022-11-02T02:19:51.853Z,11.77
2022-11-02T02:22:51.742Z,11.35
2022-11-02T02:25:42.285Z,17.58
2022-11-02T02:28:19.546Z,14.70
2022-11-02T02:30:49.432Z,7.73
2022-11-02T02:33:59.272Z,18.85
2022-11-02T02:36:34.513Z,14.43
2022-11-02T02:39:29.823Z,19.45
2022-11-02T02:42:05.715Z,18.45
2022-11-02T02:44:37.050Z,17.77
2022-11-02T02:47:18.644Z,11.80
2022-11-02T02:49:52.521Z,15.95
2022-11-02T02:52:21.864Z,13.18
2022-11-02T02:54:52.369Z,14.73
2022-11-02T02:57:23.427Z,14.98
2022-11-02T02:59:51.278Z,13.55
2022-11-02T03:02:36.214Z,15.85
2022-11-02T03:05:25.664Z,18.80
2022-11-02T03:07:55.752Z,18.20
2022-11-02T03:10:37.159Z,18.08
2022-11-02T03:13:12.037Z,20.75
2022-11-02T03:15:48.757Z,14.02
2022-11-02T03:18:42.168Z,17.00
2022-11-02T03:21:32.739Z,19.25
2022-11-02T03:24:09.135Z,17.25
2022-11-02T03:26:53.025Z,20.05
2022-11-02T03:29:32.112Z,19.40
2022-11-02T03:32:10.328Z,26.50
2022-11-02T03:34:44.636Z,15.65
2022-11-02T03:37:15.304Z,23.92
2022-11-02T03:39:57.612Z,24.92
2022-11-02T03:42:27.863Z,19.70
2022-11-02T03:45:02.533Z,19.20
2022-11-02T03:47:34.034Z,14.88
2022-11-02T03:50:08.384Z,21.13
2022-11-02T03:52:40.838Z,20.08
2022-11-02T03:55:18.186Z,25.63
2022-11-02T03:57:51.479Z,19.67
2022-11-02T04:00:26.956Z,17.35
2022-11-02T04:03:06.953Z,21.05
2022-11-02T04:05:38.904Z,25.27
2022-11-02T04:08:39.695Z,22.90
2022-11-02T04:11:28.198Z,15.40
2022-11-02T04:14:18.909Z,19.40
2022-11-02T04:16:46.529Z,19.95
2022-11-02T04:19:29.811Z,19.90
2022-11-02T04:22:21.644Z,23.95
2022-11-02T04:25:11.851Z,27.13
2022-11-02T04:27:40.767Z,30.63
2022-11-02T04:30:10.570Z,19.38
2022-11-02T04:33:02.056Z,16.60
2022-11-02T04:35:34.353Z,21.88
2022-11-02T04:38:21.750Z,21.73
2022-11-02T04:41:09.314Z,25.53
2022-11-02T04:43:36.960Z,22.80
2022-11-02T04:46:04.813Z,19.77
2022-11-02T04:48:34.919Z,20.45
2022-11-02T04:51:02.814Z,18.73
2022-11-02T04:53:30.971Z,21.90
2022-11-02T04:55:58.990Z,33.80
2022-11-02T04:58:27.174Z,23.88
2022-11-02T05:00:54.766Z,28.92
2022-11-02T05:03:22.471Z,24.40
2022-11-02T05:05:55.499Z,20.95
2022-11-02T05:08:24.417Z,25.85
2022-11-02T05:10:57.598Z,19.10
2022-11-02T05:13:27.230Z,26.52
2022-11-02T05:15:59.215Z,23.02
2022-11-02T05:18:28.673Z,19.23
2022-11-02T05:20:59.995Z,24.50
2022-11-02T05:23:30.126Z,21.15
2022-11-02T05:26:09.033Z,25.23
2022-11-02T05:28:36.825Z,23.90
2022-11-02T05:31:06.219Z,26.13
2022-11-02T05:33:36.701Z,18.98
2022-11-02T05:36:12.711Z,26.40
2022-11-02T05:38:43.972Z,27.05
2022-11-02T05:43:40.686Z,19.05
2022-11-02T05:46:10.513Z,23.67
2022-11-02T05:48:38.036Z,19.23
2022-11-02T05:51:06.036Z,21.23
2022-11-02T05:53:37.291Z,14.35
2022-11-02T05:56:06.750Z,21.55
2022-11-02T05:58:34.410Z,25.13
2022-11-02T06:01:03.909Z,20.05
2022-11-02T06:03:32.101Z,21.63
2022-11-02T06:08:27.918Z,22.00
2022-11-02T06:10:55.374Z,18.85
2022-11-02T06:13:22.821Z,28.20
2022-11-02T06:15:50.290Z,24.60
2022-11-02T06:18:17.986Z,21.97
2022-11-02T06:20:45.471Z,25.88
2022-11-02T06:23:14.454Z,21.20
2022-11-02T06:25:41.879Z,31.33
2022-11-02T06:28:09.431Z,27.58
2022-11-02T06:30:36.929Z,23.15
2022-11-02T06:33:06.908Z,18.67
2022-11-02T06:35:34.959Z,26.63
2022-11-02T06:38:02.438Z,21.63
2022-11-02T06:40:29.965Z,23.40
2022-11-02T06:45:46.694Z,19.55
2022-11-02T06:48:14.302Z,15.63
2022-11-02T06:50:41.960Z,19.92
2022-11-02T06:53:09.425Z,21.40
2022-11-02T06:55:36.990Z,23.88
2022-11-02T06:58:04.623Z,21.85
2022-11-02T07:00:32.373Z,27.92
2022-11-02T07:03:05.855Z,26.17
2022-11-02T07:05:35.699Z,31.63
2022-11-02T07:08:04.146Z,24.73
2022-11-02T07:10:32.020Z,25.95
2022-11-02T07:12:59.630Z,17.00
2022-11-02T07:15:27.825Z,22.45
2022-11-02T07:17:55.230Z,33.08
2022-11-02T07:20:23.258Z,32.05
2022-11-02T07:22:55.982Z,23.75
2022-11-02T07:25:25.002Z,31.95
2022-11-02T07:27:52.766Z,30.38
2022-11-02T07:30:20.487Z,24.55
2022-11-02T07:32:48.326Z,22.90
2022-11-02T07:35:17.567Z,28.63
2022-11-02T07:37:45.232Z,23.70
2022-11-02T07:40:14.373Z,35.00
2022-11-02T07:42:46.489Z,28.50
2022-11-02T07:45:16.557Z,28.70
2022-11-02T07:47:45.431Z,33.00
2022-11-02T07:50:14.094Z,20.88
2022-11-02T07:52:53.251Z,31.52
2022-11-02T07:55:22.783Z,39.05
2022-11-02T07:57:57.384Z,27.63
2022-11-02T08:00:26.725Z,29.17
2022-11-02T08:02:55.732Z,23.55
2022-11-02T08:05:23.834Z,26.92
2022-11-02T08:08:05.291Z,24.52
2022-11-02T08:10:37.401Z,39.58
2022-11-02T08:13:12.718Z,25.52
2022-11-02T08:15:40.188Z,32.80
2022-11-02T08:18:16.069Z,23.55
2022-11-02T08:20:43.860Z,23.77
2022-11-02T08:23:11.469Z,22.80
2022-11-02T08:25:40.265Z,37.25
2022-11-02T08:28:11.695Z,33.90
2022-11-02T08:30:39.142Z,33.13
2022-11-02T08:33:13.428Z,32.13
2022-11-02T08:35:41.571Z,33.05
2022-11-02T08:38:09.833Z,19.25
2022-11-02T08:43:07.849Z,27.75
2022-11-02T08:46:12.610Z,34.47
2022-11-02T08:48:24.734Z,31.25
2022-11-02T08:50:52.303Z,21.33
2022-11-02T08:53:20.059Z,30.83
2022-11-02T08:55:47.552Z,36.28
2022-11-02T08:58:15.003Z,25.85
2022-11-02T09:00:47.376Z,29.55
2022-11-02T09:03:15.937Z,27.70
2022-11-02T09:05:45.533Z,29.95
2022-11-02T09:08:20.708Z,30.65
2022-11-02T09:10:51.098Z,26.67
2022-11-02T09:13:24.987Z,25.17
2022-11-02T09:15:55.131Z,23.48
2022-11-02T09:18:23.177Z,26.10
2022-11-02T09:20:51.385Z,26.67
2022-11-02T09:23:20.673Z,27.27
2022-11-02T09:25:49.007Z,19.88
2022-11-02T09:28:16.879Z,24.55
2022-11-02T09:30:44.333Z,27.33
2022-11-02T09:33:13.381Z,34.42
2022-11-02T09:35:46.070Z,24.90
2022-11-02T09:38:14.300Z,25.98
2022-11-02T09:43:36.275Z,21.92
2022-11-02T09:46:08.152Z,29.77
2022-11-02T09:48:47.082Z,29.98
2022-11-02T09:51:33.693Z,22.27
2022-11-02T09:54:21.880Z,24.30
2022-11-02T09:56:50.954Z,29.13
2022-11-02T09:59:21.671Z,29.50
2022-11-02T10:02:13.093Z,33.75
2022-11-02T10:04:58.741Z,25.83
2022-11-02T10:07:32.816Z,23.80
2022-11-02T10:10:05.428Z,30.15
2022-11-02T10:13:14.768Z,26.52
2022-11-02T10:15:53.072Z,25.25
2022-11-02T10:18:28.669Z,29.63
2022-11-02T10:21:12.137Z,20.67
2022-11-02T10:23:47.813Z,25.77
2022-11-02T10:26:22.405Z,24.67
2022-11-02T10:28:58.041Z,24.00
2022-11-02T10:31:36.362Z,29.33
2022-11-02T10:37:07.691Z,27.98
2022-11-02T10:39:44.174Z,34.70
2022-11-02T10:42:44.495Z,27.77
2022-11-02T10:45:30.488Z,40.13
2022-11-02T10:48:16.733Z,32.78
2022-11-02T10:50:48.760Z,35.40
2022-11-02T10:56:17.518Z,38.03
2022-11-02T10:59:03.140Z,30.10
2022-11-02T11:01:32.077Z,26.88
2022-11-02T11:04:03.824Z,28.98
2022-11-02T11:06:43.016Z,31.50
2022-11-02T11:09:30.541Z,26.88
2022-11-02T11:12:31.901Z,33.10
2022-11-02T11:20:39.851Z,26.20
2022-11-02T11:23:26.618Z,29.75
2022-11-02T11:25:55.727Z,28.10
2022-11-02T11:28:25.915Z,29.60
2022-11-02T11:31:11.203Z,28.08
2022-11-02T11:33:51.249Z,25.77
2022-11-02T11:36:33.000Z,22.25
2022-11-02T11:39:07.597Z,29.25
2022-11-02T11:41:40.190Z,23.80
2022-11-02T11:44:19.419Z,26.30
2022-11-02T11:46:57.709Z,20.23
2022-11-02T11:52:32.300Z,19.23
2022-11-02T11:55:06.005Z,23.92
2022-11-02T11:57:34.797Z,27.80
2022-11-02T12:00:22.866Z,28.33
2022-11-02T12:05:30.788Z,25.27
2022-11-02T12:08:39.007Z,24.73
2022-11-02T12:11:21.750Z,27.95
2022-11-02T12:14:18.322Z,27.05
2022-11-02T12:19:50.655Z,24.92
2022-11-02T12:22:49.981Z,22.63
2022-11-02T12:25:29.345Z,26.10
2022-11-02T12:28:27.456Z,29.95
2022-11-02T12:31:09.702Z,31.27
2022-11-02T12:34:04.071Z,25.63
2022-11-02T12:37:09.852Z,27.73
2022-11-02T12:39:51.618Z,24.48
2022-11-02T12:42:58.122Z,25.75
2022-11-02T12:45:48.548Z,25.80
2022-11-02T12:48:42.433Z,24.33
2022-11-02T12:51:17.230Z,28.63
2022-11-02T12:53:55.549Z,29.08
2022-11-02T12:56:45.624Z,35.95
2022-11-02T12:59:28.310Z,29.90
2022-11-02T13:02:11.784Z,37.10
2022-11-02T13:04:48.574Z,27.98
2022-11-02T13:07:20.149Z,29.95
2022-11-02T13:09:53.530Z,27.63
2022-11-02T13:12:24.222Z,30.95
2022-11-02T13:14:55.364Z,24.67
2022-11-02T13:17:36.280Z,25.17
2022-11-02T13:20:14.684Z,26.35
2022-11-02T13:22:45.034Z,19.08
2022-11-02T13:25:23.295Z,28.27
2022-11-02T13:28:05.209Z,30.45
2022-11-02T13:30:34.403Z,30.70
2022-11-02T13:33:11.349Z,24.38
2022-11-02T13:35:43.342Z,29.55
2022-11-02T13:38:25.837Z,29.23
2022-11-02T13:41:08.629Z,29.77
2022-11-02T13:43:57.793Z,26.40
2022-11-02T13:47:22.207Z,27.42
2022-11-02T13:49:52.195Z,34.17
2022-11-02T13:52:44.282Z,23.70
2022-11-02T13:55:24.498Z,32.35
2022-11-02T13:57:59.092Z,29.00
2022-11-02T14:00:38.910Z,27.50
2022-11-02T14:03:16.445Z,33.42
2022-11-02T14:05:58.429Z,32.15
2022-11-02T14:08:39.802Z,34.67
2022-11-02T14:11:24.813Z,29.52
2022-11-02T14:13:55.101Z,29.42
2022-11-02T14:16:46.878Z,36.53
2022-11-02T14:19:20.947Z,29.55
2022-11-02T14:21:52.331Z,35.33
2022-11-02T14:24:36.008Z,28.55
2022-11-02T14:27:12.517Z,26.52
2022-11-02T14:29:44.891Z,34.78
2022-11-02T14:32:21.566Z,33.22
2022-11-02T14:35:26.620Z,28.20
2022-11-02T14:38:24.785Z,35.63
2022-11-02T14:41:32.010Z,34.63
2022-11-02T14:44:21.666Z,33.45
2022-11-02T14:47:11.314Z,35.42
2022-11-02T14:49:48.011Z,31.23
2022-11-02T14:52:15.504Z,33.38
2022-11-02T14:55:33.426Z,27.55
2022-11-02T14:58:11.351Z,31.10
2022-11-02T15:01:01.387Z,32.38
2022-11-02T15:03:29.222Z,34.85
2022-11-02T15:06:13.412Z,39.63
2022-11-02T15:08:58.099Z,34.47
2022-11-02T15:11:50.638Z,28.70
2022-11-02T15:14:37.896Z,32.17
2022-11-02T15:17:20.098Z,29.40
2022-11-02T15:19:54.326Z,28.45
2022-11-02T15:22:43.660Z,35.42
2022-11-02T15:25:14.813Z,29.17
2022-11-02T15:27:45.729Z,33.15
2022-11-02T15:30:25.171Z,32.60
2022-11-02T15:33:26.965Z,24.95
2022-11-02T15:35:55.879Z,28.38
2022-11-02T15:38:33.860Z,32.88
2022-11-02T15:41:21.164Z,29.63
2022-11-02T15:44:12.498Z,33.53
2022-11-02T15:46:54.852Z,27.85
2022-11-02T15:50:01.357Z,30.75
2022-11-02T15:52:55.641Z,30.50
2022-11-02T15:55:39.282Z,28.15
2022-11-02T15:58:15.384Z,29.92
2022-11-02T16:01:05.633Z,28.25
2022-11-02T16:03:34.535Z,28.73
2022-11-02T16:06:05.011Z,28.02
2022-11-02T16:08:36.073Z,32.22
2022-11-02T16:11:17.591Z,34.97
2022-11-02T16:14:07.955Z,25.58
2022-11-02T16:16:49.556Z,37.15
2022-11-02T16:19:21.713Z,32.33
2022-11-02T16:21:55.983Z,30.80
2022-11-02T16:24:26.405Z,34.22
2022-11-02T16:26:57.021Z,28.98
2022-11-02T16:29:33.130Z,30.92
2022-11-02T16:32:18.662Z,33.10
2022-11-02T16:34:49.135Z,26.38
2022-11-02T16:37:23.604Z,24.98
2022-11-02T16:39:53.867Z,32.85
2022-11-02T16:42:25.268Z,35.97
2022-11-02T16:44:59.027Z,31.98
2022-11-02T16:47:41.955Z,34.75
2022-11-02T16:50:24.245Z,37.00
2022-11-02T16:53:01.256Z,32.80
2022-11-02T16:55:47.084Z,32.55
2022-11-02T16:58:22.969Z,33.45
2022-11-02T17:01:19.065Z,33.65
2022-11-02T17:03:46.894Z,30.88
2022-11-02T17:06:15.043Z,35.47
2022-11-02T17:08:44.096Z,34.97
2022-11-02T17:11:16.646Z,34.75
2022-11-02T17:13:51.580Z,28.15
2022-11-02T17:16:19.702Z,31.35
2022-11-02T17:18:47.518Z,33.30
2022-11-02T17:21:29.481Z,30.77
2022-11-02T17:23:59.064Z,24.02
2022-11-02T17:26:32.054Z,33.45
2022-11-02T17:29:22.526Z,30.95
2022-11-02T17:31:56.691Z,26.27
2022-11-02T17:34:24.588Z,32.05
2022-11-02T17:36:52.260Z,37.05
2022-11-02T17:39:20.682Z,27.38
2022-11-02T17:42:16.748Z,27.45
2022-11-02T17:44:48.315Z,27.67
2022-11-02T17:47:18.330Z,29.70
2022-11-02T17:49:45.778Z,27.77
2022-11-02T17:52:16.402Z,30.50
2022-11-02T17:54:44.044Z,34.63
2022-11-02T17:57:15.599Z,28.90
2022-11-02T17:59:43.176Z,34.55
2022-11-02T18:02:15.234Z,27.35
2022-11-02T18:07:12.262Z,29.33
2022-11-02T18:09:40.073Z,25.05
2022-11-02T18:12:12.446Z,29.08
2022-11-02T18:14:40.430Z,32.75
2022-11-02T18:17:08.330Z,24.23
2022-11-02T18:19:35.739Z,30.27
2022-11-02T18:22:03.250Z,28.10
2022-11-02T18:24:30.650Z,27.45
2022-11-02T18:27:00.394Z,28.45
2022-11-02T18:29:27.823Z,32.08
2022-11-02T18:31:55.260Z,36.10
2022-11-02T18:34:23.214Z,31.05
2022-11-02T18:36:50.634Z,32.63
2022-11-02T18:39:18.250Z,27.27
2022-11-02T18:41:45.666Z,38.38
2022-11-02T18:44:16.938Z,36.40
2022-11-02T18:46:44.370Z,32.70
2022-11-02T18:49:11.876Z,37.87
2022-11-02T18:51:42.995Z,42.08
2022-11-02T18:54:10.938Z,32.75
2022-11-02T18:56:38.565Z,28.58
2022-11-02T18:59:06.217Z,34.85
2022-11-02T19:01:34.423Z,33.20
2022-11-02T19:04:02.463Z,45.28
2022-11-02T19:06:50.953Z,36.65
2022-11-02T19:09:21.018Z,34.80
2022-11-02T19:12:07.553Z,30.48
2022-11-02T19:14:38.134Z,30.30
2022-11-02T19:17:07.123Z,39.80
2022-11-02T19:19:34.976Z,35.03
2022-11-02T19:22:03.227Z,30.08
2022-11-02T19:24:31.180Z,39.25
2022-11-02T19:26:59.111Z,37.78
2022-11-02T19:29:26.670Z,25.10
2022-11-02T19:31:54.165Z,35.05
2022-11-02T19:34:22.929Z,35.90
2022-11-02T19:36:50.413Z,36.85
2022-11-02T19:39:18.231Z,39.88
2022-11-02T19:41:48.666Z,35.45
2022-11-02T19:44:16.083Z,38.25
2022-11-02T19:49:15.965Z,34.60
2022-11-02T19:51:43.494Z,33.72
2022-11-02T19:54:10.950Z,32.25
2022-11-02T19:56:38.419Z,33.95
2022-11-02T19:59:06.784Z,41.03
2022-11-02T20:01:36.616Z,32.97
2022-11-02T20:04:04.998Z,35.70
2022-11-02T20:09:09.961Z,30.33
2022-11-02T20:11:39.685Z,37.17
2022-11-02T20:14:08.039Z,31.13
2022-11-02T20:16:35.653Z,29.27
2022-11-02T20:19:03.234Z,29.67
2022-11-02T20:21:36.713Z,31.40
2022-11-02T20:24:07.880Z,30.30
2022-11-02T20:26:36.778Z,30.73
2022-11-02T20:29:05.892Z,36.80
2022-11-02T20:31:36.325Z,41.60
2022-11-02T20:34:07.463Z,40.38
2022-11-02T20:36:35.535Z,37.13
2022-11-02T20:39:04.750Z,46.25
2022-11-02T20:41:32.341Z,47.17
2022-11-02T20:44:00.169Z,39.60
2022-11-02T20:46:40.707Z,50.50
2022-11-02T20:49:21.537Z,41.88
2022-11-02T20:51:57.563Z,39.85
2022-11-02T20:54:26.542Z,42.50
2022-11-02T20:56:54.013Z,45.33
2022-11-02T20:59:21.419Z,52.53
2022-11-02T21:01:48.904Z,46.83
2022-11-02T21:04:20.642Z,42.85
2022-11-02T21:06:49.867Z,44.97
2022-11-02T21:09:20.614Z,40.53
2022-11-02T21:12:06.550Z,53.30
2022-11-02T21:14:33.934Z,42.47
2022-11-02T21:17:02.804Z,44.08
2022-11-02T21:19:30.489Z,45.67
2022-11-02T21:22:00.054Z,57.10
2022-11-02T21:24:29.132Z,48.38
2022-11-02T21:26:56.585Z,46.72
2022-11-02T21:29:24.243Z,44.70
2022-11-02T21:31:51.713Z,44.05
2022-11-02T21:34:19.258Z,43.20
2022-11-02T21:36:47.597Z,33.67
2022-11-02T21:39:15.085Z,53.45
2022-11-02T21:41:42.828Z,47.33
2022-11-02T21:44:11.681Z,39.92
2022-11-02T21:46:39.246Z,40.05
2022-11-02T21:49:06.738Z,38.47
2022-11-02T21:51:36.023Z,43.28
2022-11-02T21:54:03.605Z,37.60
2022-11-02T21:56:31.877Z,38.65
2022-11-02T21:58:59.607Z,30.63
2022-11-02T22:01:45.300Z,35.95
2022-11-02T22:04:28.260Z,40.28
2022-11-02T22:06:57.116Z,41.17
2022-11-02T22:09:25.516Z,29.63
2022-11-02T22:12:13.200Z,47.85
2022-11-02T22:14:42.225Z,34.47
2022-11-02T22:17:16.473Z,37.65
2022-11-02T22:19:52.830Z,28.85
2022-11-02T22:22:20.303Z,31.50
2022-11-02T22:24:47.796Z,36.70
2022-11-02T22:27:15.198Z,38.33
2022-11-02T22:29:42.596Z,34.13
2022-11-02T22:32:10.097Z,35.78
2022-11-02T22:34:37.577Z,36.80
2022-11-02T22:37:25.249Z,38.60
2022-11-02T22:39:52.644Z,48.72
2022-11-02T22:42:20.085Z,32.90
2022-11-02T22:44:47.478Z,33.85
2022-11-02T22:47:14.898Z,35.15
2022-11-02T22:49:42.308Z,37.47
2022-11-02T22:52:09.749Z,21.80
2022-11-02T22:54:37.371Z,33.55
2022-11-02T22:57:04.894Z,23.25
2022-11-02T22:59:32.351Z,21.98
2022-11-02T23:01:59.829Z,20.35
2022-11-02T23:04:27.872Z,22.55
2022-11-02T23:06:55.267Z,21.80
2022-11-02T23:09:22.815Z,21.83
2022-11-02T23:11:50.207Z,20.20
2022-11-02T23:14:19.468Z,22.23
2022-11-02T23:16:47.696Z,18.48
2022-11-02T23:22:24.407Z,27.27
2022-11-02T23:25:13.870Z,25.23
2022-11-02T23:28:27.208Z,24.85
2022-11-02T23:31:13.774Z,29.35
2022-11-02T23:33:41.554Z,24.83
2022-11-02T23:36:12.672Z,29.50
2022-11-02T23:39:03.775Z,38.13
2022-11-02T23:41:33.005Z,28.77
2022-11-02T23:44:14.361Z,28.77
2022-11-02T23:46:48.670Z,28.50
2022-11-02T23:49:17.975Z,29.00
2022-11-02T23:52:04.160Z,37.75
2022-11-02T23:54:49.953Z,35.50
2022-11-02T23:57:18.608Z,35.38
2022-11-02T23:59:46.021Z,42.30
